createdAt,value
2018-09-21T00:00:40.324Z,10.67
2018-09-21T00:03:09.933Z,9.93
2018-09-21T00:05:38.514Z,10.50
2018-09-21T00:08:06.706Z,9.53
2018-09-21T00:10:35.142Z,14.10
2018-09-21T00:13:03.458Z,12.03
2018-09-21T00:15:31.772Z,10.40
2018-09-21T00:17:59.964Z,10.50
2018-09-21T00:20:28.396Z,10.40
2018-09-21T00:22:56.599Z,10.33
2018-09-21T00:25:24.780Z,11.60
2018-09-21T00:27:52.950Z,9.63
2018-09-21T00:30:21.040Z,14.33
2018-09-21T00:32:49.158Z,12.07
2018-09-21T00:35:17.366Z,11.17
2018-09-21T00:37:45.572Z,11.40
2018-09-21T00:40:13.828Z,11.20
2018-09-21T00:42:42.165Z,11.90
2018-09-21T00:45:10.380Z,10.07
2018-09-21T00:47:38.542Z,9.77
2018-09-21T00:50:06.707Z,12.27
2018-09-21T00:52:34.842Z,11.03
2018-09-21T00:55:03.324Z,10.70
2018-09-21T00:57:31.480Z,10.77
2018-09-21T00:59:59.641Z,10.53
2018-09-21T01:02:27.828Z,9.60
2018-09-21T01:04:55.984Z,12.83
2018-09-21T01:07:24.095Z,11.83
2018-09-21T01:09:52.265Z,14.10
2018-09-21T01:12:20.407Z,14.10
2018-09-21T01:14:48.559Z,12.67
2018-09-21T01:17:16.721Z,13.47
2018-09-21T01:19:44.809Z,9.87
2018-09-21T01:22:12.980Z,10.77
2018-09-21T01:24:41.141Z,13.37
2018-09-21T01:27:13.676Z,12.43
2018-09-21T01:29:41.885Z,11.83
2018-09-21T01:32:10.180Z,11.60
2018-09-21T01:34:38.282Z,14.57
2018-09-21T01:37:06.552Z,12.10
2018-09-21T01:39:34.753Z,12.40
2018-09-21T01:42:02.913Z,12.87
2018-09-21T01:44:31.077Z,12.13
2018-09-21T01:46:59.311Z,13.07
2018-09-21T01:49:27.577Z,11.70
2018-09-21T01:51:55.979Z,11.47
2018-09-21T01:54:24.097Z,16.17
2018-09-21T01:56:52.370Z,11.33
2018-09-21T01:59:20.650Z,13.17
2018-09-21T02:01:49.169Z,13.80
2018-09-21T02:04:17.451Z,13.07
2018-09-21T02:06:45.679Z,11.60
2018-09-21T02:09:13.871Z,11.07
2018-09-21T02:11:42.101Z,12.90
2018-09-21T02:14:10.855Z,12.70
2018-09-21T02:16:39.075Z,13.93
2018-09-21T02:19:07.344Z,15.07
2018-09-21T02:21:35.589Z,12.73
2018-09-21T02:24:03.857Z,13.70
2018-09-21T02:26:31.999Z,14.57
2018-09-21T02:29:00.161Z,16.10
2018-09-21T02:31:28.263Z,16.60
2018-09-21T02:33:56.581Z,14.93
2018-09-21T02:36:24.899Z,14.57
2018-09-21T02:38:53.078Z,16.00
2018-09-21T02:41:21.288Z,14.50
2018-09-21T02:43:49.563Z,14.20
2018-09-21T02:46:17.760Z,14.33
2018-09-21T02:48:46.276Z,14.40
2018-09-21T02:51:14.395Z,15.07
2018-09-21T02:53:42.515Z,16.50
2018-09-21T02:56:10.760Z,15.83
2018-09-21T02:58:38.990Z,15.17
2018-09-21T03:01:07.281Z,18.13
2018-09-21T03:03:35.558Z,16.10
2018-09-21T03:06:03.741Z,17.00
2018-09-21T03:08:31.894Z,16.97
2018-09-21T03:11:00.137Z,15.60
2018-09-21T03:13:28.319Z,17.40
2018-09-21T03:15:56.506Z,15.47
2018-09-21T03:18:24.695Z,15.90
2018-09-21T03:20:52.847Z,14.53
2018-09-21T03:23:21.081Z,17.90
2018-09-21T03:25:49.300Z,19.03
2018-09-21T03:28:17.569Z,16.23
2018-09-21T03:30:45.797Z,18.80
2018-09-21T03:33:14.117Z,19.13
2018-09-21T03:35:42.529Z,17.13
2018-09-21T03:38:11.011Z,16.63
2018-09-21T03:40:39.294Z,16.83
2018-09-21T03:43:08.370Z,18.33
2018-09-21T03:45:36.619Z,18.23
2018-09-21T03:48:04.769Z,20.43
2018-09-21T03:50:33.246Z,18.60
2018-09-21T03:53:01.489Z,18.43
2018-09-21T03:55:29.629Z,21.17
2018-09-21T03:57:57.845Z,18.37
2018-09-21T04:00:26.111Z,19.53
2018-09-21T04:02:54.253Z,17.40
2018-09-21T04:05:22.389Z,17.87
2018-09-21T04:07:50.566Z,17.27
2018-09-21T04:10:18.772Z,16.97
2018-09-21T04:12:47.016Z,17.70
2018-09-21T04:15:15.169Z,15.37
2018-09-21T04:17:43.278Z,17.33
2018-09-21T04:20:11.708Z,16.97
2018-09-21T04:22:40.009Z,18.27
2018-09-21T04:25:09.406Z,19.83
2018-09-21T04:27:37.527Z,19.60
2018-09-21T04:30:05.708Z,16.77
2018-09-21T04:32:33.843Z,15.83
2018-09-21T04:35:02.033Z,17.77
2018-09-21T04:37:30.189Z,17.73
2018-09-21T04:39:58.334Z,17.00
2018-09-21T04:42:26.521Z,17.33
2018-09-21T04:44:54.840Z,18.60
2018-09-21T04:47:23.218Z,18.07
2018-09-21T04:49:51.537Z,16.67
2018-09-21T04:52:26.249Z,16.80
2018-09-21T04:54:54.497Z,14.50
2018-09-21T04:57:22.691Z,16.87
2018-09-21T04:59:50.824Z,16.37
2018-09-21T05:02:19.020Z,16.63
2018-09-21T05:04:47.300Z,21.80
2018-09-21T05:07:16.507Z,20.43
2018-09-21T05:09:44.710Z,20.47
2018-09-21T05:12:13.035Z,16.73
2018-09-21T05:14:41.264Z,16.87
2018-09-21T05:17:09.491Z,18.63
2018-09-21T05:19:37.661Z,18.53
2018-09-21T05:22:05.950Z,21.33
2018-09-21T05:24:34.193Z,18.50
2018-09-21T05:27:02.327Z,24.00
2018-09-21T05:29:32.177Z,24.03
2018-09-21T05:32:00.482Z,19.93
2018-09-21T05:34:28.883Z,19.07
2018-09-21T05:36:57.034Z,20.23
2018-09-21T05:39:25.255Z,18.90
2018-09-21T05:41:53.499Z,20.87
2018-09-21T05:44:21.774Z,19.33
2018-09-21T05:46:50.030Z,18.43
2018-09-21T05:49:18.311Z,19.97
2018-09-21T05:51:46.595Z,18.90
2018-09-21T05:54:14.804Z,19.60
2018-09-21T05:56:44.082Z,21.07
2018-09-21T05:59:12.276Z,19.03
2018-09-21T06:01:40.471Z,15.57
2018-09-21T06:04:08.747Z,13.23
2018-09-21T06:06:36.917Z,14.63
2018-09-21T06:09:06.812Z,16.27
2018-09-21T06:11:35.039Z,17.40
2018-09-21T06:14:03.396Z,16.10
2018-09-21T06:16:31.512Z,15.20
2018-09-21T06:18:59.713Z,17.57
2018-09-21T06:21:27.885Z,14.97
2018-09-21T06:23:56.103Z,15.07
2018-09-21T06:26:24.362Z,16.00
2018-09-21T06:28:52.930Z,20.17
2018-09-21T06:31:21.199Z,14.63
2018-09-21T06:33:49.881Z,17.00
2018-09-21T06:36:18.038Z,15.60
2018-09-21T06:38:46.270Z,18.10
2018-09-21T06:41:14.469Z,15.33
2018-09-21T06:43:42.641Z,16.63
2018-09-21T06:46:10.825Z,13.03
2018-09-21T06:48:38.963Z,17.17
2018-09-21T06:51:07.261Z,16.33
2018-09-21T06:53:35.424Z,12.07
2018-09-21T06:56:03.573Z,10.40
2018-09-21T06:58:32.845Z,9.57
2018-09-21T07:01:00.991Z,10.43
2018-09-21T07:03:29.157Z,10.37
2018-09-21T07:05:57.349Z,11.63
2018-09-21T07:08:25.671Z,11.93
2018-09-21T07:10:53.816Z,12.40
2018-09-21T07:13:21.980Z,13.33
2018-09-21T07:15:51.065Z,11.57
2018-09-21T07:18:20.181Z,10.30
2018-09-21T07:20:48.301Z,9.03
2018-09-21T07:23:16.484Z,8.97
2018-09-21T07:25:44.642Z,8.10
2018-09-21T07:28:13.260Z,8.73
2018-09-21T07:30:41.401Z,9.57
2018-09-21T07:33:09.796Z,11.43
2018-09-21T07:35:38.018Z,7.83
2018-09-21T07:38:06.916Z,7.90
2018-09-21T07:40:35.817Z,9.00
2018-09-21T07:43:04.018Z,7.77
2018-09-21T07:45:32.199Z,7.43
2018-09-21T07:48:00.494Z,7.80
2018-09-21T07:50:28.783Z,7.47
2018-09-21T07:52:57.070Z,6.30
2018-09-21T07:55:25.404Z,7.23
2018-09-21T07:57:53.972Z,7.43
2018-09-21T08:00:22.270Z,9.37
2018-09-21T08:02:50.628Z,7.83
2018-09-21T08:05:23.299Z,7.40
2018-09-21T08:07:51.722Z,7.00
2018-09-21T08:10:20.126Z,8.97
2018-09-21T08:12:48.361Z,8.47
2018-09-21T08:15:16.589Z,7.73
2018-09-21T08:17:44.732Z,7.40
2018-09-21T08:20:12.925Z,6.47
2018-09-21T08:22:41.058Z,7.00
2018-09-21T08:25:09.343Z,8.27
2018-09-21T08:27:37.491Z,6.90
2018-09-21T08:30:05.661Z,7.97
2018-09-21T08:32:33.799Z,9.50
2018-09-21T08:35:01.966Z,6.60
2018-09-21T08:37:30.108Z,7.37
2018-09-21T08:39:58.313Z,6.90
2018-09-21T08:42:26.575Z,7.80
2018-09-21T08:44:54.917Z,10.33
2018-09-21T08:47:23.231Z,7.83
2018-09-21T08:49:52.486Z,8.23
2018-09-21T08:52:20.651Z,7.97
2018-09-21T08:54:49.220Z,8.43
2018-09-21T08:57:18.236Z,7.47
2018-09-21T08:59:46.428Z,8.93
2018-09-21T09:02:15.039Z,8.47
2018-09-21T09:04:43.356Z,7.47
2018-09-21T09:07:11.640Z,9.70
2018-09-21T09:09:40.063Z,7.70
2018-09-21T09:12:08.321Z,9.90
2018-09-21T09:14:36.979Z,9.83
2018-09-21T09:17:05.298Z,7.90
2018-09-21T09:19:33.701Z,9.33
2018-09-21T09:22:02.007Z,10.40
2018-09-21T09:24:30.442Z,8.43
2018-09-21T09:26:58.695Z,9.97
2018-09-21T09:29:26.989Z,8.33
2018-09-21T09:31:55.421Z,9.13
2018-09-21T09:34:23.669Z,8.23
2018-09-21T09:36:51.870Z,7.93
2018-09-21T09:39:20.040Z,8.03
2018-09-21T09:41:48.190Z,7.17
2018-09-21T09:44:16.488Z,8.10
2018-09-21T09:46:44.661Z,7.10
2018-09-21T09:49:12.951Z,7.07
2018-09-21T09:51:41.116Z,8.57
2018-09-21T09:54:09.361Z,8.80
2018-09-21T09:56:37.578Z,8.13
2018-09-21T09:59:05.768Z,7.10
2018-09-21T10:01:33.966Z,7.77
2018-09-21T10:04:02.355Z,6.90
2018-09-21T10:06:30.446Z,6.63
2018-09-21T10:08:58.663Z,6.70
2018-09-21T10:11:27.070Z,5.87
2018-09-21T10:13:55.468Z,6.67
2018-09-21T10:16:24.385Z,15.20
2018-09-21T10:18:52.532Z,6.77
2018-09-21T10:21:20.809Z,6.30
2018-09-21T10:23:49.288Z,6.10
2018-09-21T10:26:18.008Z,10.23
2018-09-21T10:28:47.420Z,7.53
2018-09-21T10:31:15.413Z,6.37
2018-09-21T10:33:43.949Z,6.77
2018-09-21T10:36:12.085Z,5.97
2018-09-21T10:38:40.611Z,6.27
2018-09-21T10:41:08.958Z,7.27
2018-09-21T10:43:38.003Z,7.67
2018-09-21T10:46:06.333Z,7.90
2018-09-21T10:48:34.818Z,7.83
2018-09-21T10:51:03.545Z,6.00
2018-09-21T10:53:31.777Z,6.63
2018-09-21T10:56:00.157Z,5.53
2018-09-21T10:58:29.157Z,6.00
2018-09-21T11:00:57.546Z,5.73
2018-09-21T11:03:25.907Z,8.33
2018-09-21T11:05:54.303Z,8.53
2018-09-21T11:08:22.621Z,6.37
2018-09-21T11:10:51.035Z,7.90
2018-09-21T11:13:19.210Z,6.83
2018-09-21T11:15:47.666Z,6.93
2018-09-21T11:18:16.425Z,5.57
2018-09-21T11:20:44.679Z,5.40
2018-09-21T11:23:12.964Z,6.17
2018-09-21T11:25:41.214Z,7.43
2018-09-21T11:28:09.427Z,6.07
2018-09-21T11:30:37.619Z,7.03
2018-09-21T11:33:05.899Z,5.43
2018-09-21T11:35:34.110Z,7.80
2018-09-21T11:38:02.306Z,5.43
2018-09-21T11:40:30.497Z,10.17
2018-09-21T11:42:58.699Z,5.37
2018-09-21T11:45:27.089Z,5.53
2018-09-21T11:47:55.533Z,7.53
2018-09-21T11:50:23.989Z,5.27
2018-09-21T11:52:52.253Z,5.47
2018-09-21T11:55:21.633Z,6.30
2018-09-21T11:57:49.952Z,6.87
2018-09-21T12:00:18.315Z,6.67
2018-09-21T12:02:46.755Z,6.73
2018-09-21T12:05:16.311Z,5.50
2018-09-21T12:07:44.672Z,7.17
2018-09-21T12:10:13.015Z,8.40
2018-09-21T12:12:41.441Z,6.63
2018-09-21T12:15:09.672Z,7.67
2018-09-21T12:17:37.799Z,5.73
2018-09-21T12:20:06.112Z,6.00
2018-09-21T12:22:34.376Z,5.43
2018-09-21T12:25:02.923Z,7.13
2018-09-21T12:27:31.146Z,6.37
2018-09-21T12:29:59.490Z,5.10
2018-09-21T12:32:27.706Z,6.33
2018-09-21T12:34:55.948Z,6.77
2018-09-21T12:37:24.091Z,6.20
2018-09-21T12:39:52.242Z,6.27
2018-09-21T12:44:48.876Z,4.50
2018-09-21T12:47:17.305Z,5.20
2018-09-21T12:49:45.540Z,6.20
2018-09-21T12:52:13.874Z,5.00
2018-09-21T12:54:42.317Z,7.57
2018-09-21T12:57:10.556Z,5.93
2018-09-21T12:59:38.767Z,5.33
2018-09-21T13:02:07.014Z,9.80
2018-09-21T13:04:35.240Z,5.17
2018-09-21T13:07:03.382Z,5.27
2018-09-21T13:09:31.524Z,6.47
2018-09-21T13:11:59.957Z,5.17
2018-09-21T13:14:28.150Z,8.83
2018-09-21T13:16:56.477Z,6.47
2018-09-21T13:19:25.366Z,5.17
2018-09-21T13:21:53.728Z,5.77
2018-09-21T13:24:22.118Z,7.80
2018-09-21T13:26:50.628Z,6.17
2018-09-21T13:29:18.872Z,6.87
2018-09-21T13:34:22.354Z,5.47
2018-09-21T13:36:50.963Z,8.77
2018-09-21T13:39:19.296Z,10.00
2018-09-21T13:41:47.454Z,7.83
2018-09-21T13:44:15.865Z,6.97
2018-09-21T13:46:44.171Z,5.57
2018-09-21T13:49:12.379Z,9.00
2018-09-21T13:51:40.539Z,4.63
2018-09-21T13:54:08.713Z,6.53
2018-09-21T13:56:36.984Z,5.70
2018-09-21T13:59:06.077Z,5.00
2018-09-21T14:01:34.197Z,10.43
2018-09-21T14:04:02.367Z,6.40
2018-09-21T14:06:30.509Z,7.07
2018-09-21T14:08:59.389Z,9.30
2018-09-21T14:11:27.667Z,6.40
2018-09-21T14:13:56.128Z,6.73
2018-09-21T14:16:24.551Z,6.03
2018-09-21T14:18:52.952Z,6.37
2018-09-21T14:21:21.262Z,5.23
2018-09-21T14:23:49.661Z,5.60
2018-09-21T14:26:18.009Z,4.53
2018-09-21T14:28:46.172Z,7.77
2018-09-21T14:31:14.328Z,6.63
2018-09-21T14:33:42.450Z,5.00
2018-09-21T14:36:10.797Z,5.47
2018-09-21T14:38:38.989Z,7.50
2018-09-21T14:41:07.240Z,7.37
2018-09-21T14:43:35.433Z,6.27
2018-09-21T14:46:03.573Z,6.00
2018-09-21T14:48:32.033Z,6.50
2018-09-21T14:51:00.200Z,9.07
2018-09-21T14:53:28.362Z,5.80
2018-09-21T14:55:56.966Z,6.30
2018-09-21T14:58:25.165Z,7.20
2018-09-21T15:00:53.472Z,7.20
2018-09-21T15:03:21.579Z,8.70
2018-09-21T15:05:49.808Z,4.97
2018-09-21T15:08:18.031Z,7.40
2018-09-21T15:10:46.381Z,9.93
2018-09-21T15:13:14.591Z,5.87
2018-09-21T15:15:42.834Z,5.97
2018-09-21T15:18:11.100Z,9.23
2018-09-21T15:20:39.372Z,8.70
2018-09-21T15:23:07.814Z,5.87
2018-09-21T15:25:35.989Z,7.33
2018-09-21T15:28:04.800Z,5.43
2018-09-21T15:30:33.021Z,7.20
2018-09-21T15:33:01.227Z,8.03
2018-09-21T15:35:29.597Z,6.70
2018-09-21T15:37:57.934Z,9.47
2018-09-21T15:40:26.227Z,5.10
2018-09-21T15:42:54.918Z,4.93
2018-09-21T15:45:23.330Z,8.67
2018-09-21T15:47:51.685Z,7.40
2018-09-21T15:50:19.985Z,5.13
2018-09-21T15:52:48.571Z,6.67
2018-09-21T15:55:16.840Z,8.10
2018-09-21T15:57:45.029Z,9.53
2018-09-21T16:00:13.321Z,6.73
2018-09-21T16:02:41.856Z,7.23
2018-09-21T16:05:10.249Z,10.73
2018-09-21T16:07:38.567Z,6.03
2018-09-21T16:10:07.008Z,8.10
2018-09-21T16:12:35.281Z,7.93
2018-09-21T16:15:03.659Z,8.47
2018-09-21T16:17:32.724Z,8.43
2018-09-21T16:20:01.175Z,8.33
2018-09-21T16:22:29.706Z,7.27
2018-09-21T16:24:58.167Z,9.20
2018-09-21T16:27:26.535Z,7.07
2018-09-21T16:29:55.683Z,8.13
2018-09-21T16:32:23.921Z,7.50
2018-09-21T16:34:52.223Z,10.27
2018-09-21T16:37:20.403Z,5.87
2018-09-21T16:39:49.031Z,7.47
2018-09-21T16:42:17.349Z,7.90
2018-09-21T16:44:45.677Z,5.93
2018-09-21T16:47:13.956Z,8.93
2018-09-21T16:49:42.493Z,6.87
2018-09-21T16:52:11.167Z,7.37
2018-09-21T16:54:40.370Z,8.33
2018-09-21T16:57:08.753Z,7.40
2018-09-21T16:59:37.075Z,6.97
2018-09-21T17:02:05.219Z,8.13
2018-09-21T17:04:33.532Z,8.50
2018-09-21T17:07:01.889Z,8.07
2018-09-21T17:09:30.113Z,9.50
2018-09-21T17:11:58.375Z,8.43
2018-09-21T17:14:26.833Z,9.27
2018-09-21T17:16:55.456Z,8.13
2018-09-21T17:19:24.008Z,6.37
2018-09-21T17:21:52.331Z,8.67
2018-09-21T17:24:20.731Z,8.00
2018-09-21T17:26:49.213Z,8.20
2018-09-21T17:29:17.605Z,8.43
2018-09-21T17:31:46.076Z,10.47
2018-09-21T17:34:14.265Z,13.27
2018-09-21T17:36:42.523Z,10.33
2018-09-21T17:39:12.364Z,8.43
2018-09-21T17:41:40.837Z,7.77
2018-09-21T17:44:09.288Z,7.67
2018-09-21T17:46:37.657Z,9.73
2018-09-21T17:49:06.374Z,7.00
2018-09-21T17:51:34.759Z,9.63
2018-09-21T17:54:03.373Z,8.37
2018-09-21T17:56:32.590Z,11.67
2018-09-21T17:59:00.871Z,9.43
2018-09-21T18:01:29.225Z,6.73
2018-09-21T18:03:57.471Z,6.60
2018-09-21T18:06:25.882Z,6.50
2018-09-21T18:08:55.519Z,6.30
2018-09-21T18:11:23.810Z,6.10
2018-09-21T18:13:52.060Z,7.20
2018-09-21T18:16:21.198Z,9.77
2018-09-21T18:18:49.511Z,8.40
2018-09-21T18:21:18.055Z,4.17
2018-09-21T18:23:46.390Z,4.27
2018-09-21T18:26:14.737Z,2.57
2018-09-21T18:28:43.039Z,3.50
2018-09-21T18:31:12.143Z,1.30
2018-09-21T18:33:40.422Z,3.63
2018-09-21T18:36:08.878Z,2.13
2018-09-21T18:38:38.103Z,0.97
2018-09-21T18:41:06.548Z,6.63
2018-09-21T18:43:35.031Z,2.07
2018-09-21T18:46:03.353Z,1.57
2018-09-21T18:48:31.581Z,1.80
2018-09-21T18:50:59.806Z,1.80
2018-09-21T18:53:27.979Z,2.77
2018-09-21T18:55:56.160Z,2.20
2018-09-21T18:58:24.518Z,1.20
2018-09-21T19:00:52.778Z,2.37
2018-09-21T19:03:21.342Z,3.70
2018-09-21T19:05:49.687Z,1.80
2018-09-21T19:08:17.963Z,1.07
2018-09-21T19:10:46.208Z,5.00
2018-09-21T19:13:14.417Z,3.60
2018-09-21T19:15:42.738Z,2.60
2018-09-21T19:18:11.124Z,3.27
2018-09-21T19:20:39.523Z,2.17
2018-09-21T19:23:07.937Z,3.67
2018-09-21T19:25:36.267Z,1.97
2018-09-21T19:28:04.593Z,1.30
2018-09-21T19:30:32.868Z,2.90
2018-09-21T19:33:01.152Z,2.60
2018-09-21T19:35:29.454Z,3.13
2018-09-21T19:37:57.831Z,1.83
2018-09-21T19:40:26.168Z,2.43
2018-09-21T19:42:54.655Z,4.33
2018-09-21T19:45:22.989Z,2.77
2018-09-21T19:47:51.145Z,3.03
2018-09-21T19:50:19.477Z,1.77
2018-09-21T19:52:48.076Z,3.30
2018-09-21T19:55:16.462Z,2.40
2018-09-21T19:57:44.825Z,3.10
2018-09-21T20:00:13.192Z,3.40
2018-09-21T20:02:41.550Z,1.53
2018-09-21T20:05:10.439Z,2.50
2018-09-21T20:07:38.817Z,1.93
2018-09-21T20:10:07.195Z,2.50
2018-09-21T20:12:35.459Z,3.07
2018-09-21T20:15:03.832Z,2.43
2018-09-21T20:17:32.073Z,3.77
2018-09-21T20:20:00.274Z,3.17
2018-09-21T20:22:28.549Z,3.53
2018-09-21T20:24:56.782Z,2.80
2018-09-21T20:27:24.973Z,4.63
2018-09-21T20:29:57.441Z,3.20
2018-09-21T20:32:31.133Z,4.57
2018-09-21T20:34:59.763Z,2.50
2018-09-21T20:37:28.245Z,5.23
2018-09-21T20:39:56.512Z,3.03
2018-09-21T20:42:24.747Z,1.70
2018-09-21T20:44:53.009Z,3.23
2018-09-21T20:47:21.129Z,4.80
2018-09-21T20:49:49.359Z,3.27
2018-09-21T20:52:17.517Z,3.07
2018-09-21T20:54:45.846Z,3.13
2018-09-21T20:57:14.068Z,4.13
2018-09-21T20:59:42.242Z,3.43
2018-09-21T21:02:10.447Z,4.23
2018-09-21T21:04:38.823Z,3.13
2018-09-21T21:07:07.030Z,4.17
2018-09-21T21:09:35.319Z,5.43
2018-09-21T21:12:03.932Z,4.37
2018-09-21T21:14:32.455Z,3.70
2018-09-21T21:17:00.860Z,2.43
2018-09-21T21:19:29.311Z,6.17
2018-09-21T21:21:57.753Z,3.43
2018-09-21T21:24:26.016Z,4.13
2018-09-21T21:26:54.364Z,1.40
2018-09-21T21:29:22.671Z,4.87
2018-09-21T21:31:50.961Z,6.67
2018-09-21T21:34:19.222Z,4.47
2018-09-21T21:36:47.541Z,4.10
2018-09-21T21:39:15.737Z,8.17
2018-09-21T21:41:43.901Z,4.03
2018-09-21T21:44:12.101Z,6.00
2018-09-21T21:46:40.297Z,3.30
2018-09-21T21:49:08.472Z,4.90
2018-09-21T21:51:36.760Z,5.87
2018-09-21T21:54:05.516Z,9.47
2018-09-21T21:56:33.820Z,9.10
2018-09-21T21:59:02.021Z,4.90
2018-09-21T22:01:35.584Z,7.73
2018-09-21T22:04:03.900Z,4.27
2018-09-21T22:06:32.049Z,5.00
2018-09-21T22:09:00.233Z,7.73
2018-09-21T22:11:33.919Z,4.23
2018-09-21T22:14:06.122Z,5.90
2018-09-21T22:16:35.412Z,7.20
2018-09-21T22:19:03.907Z,4.03
2018-09-21T22:21:32.763Z,4.00
2018-09-21T22:24:01.336Z,4.87
2018-09-21T22:26:29.650Z,5.93
2018-09-21T22:28:58.381Z,7.70
2018-09-21T22:31:26.681Z,7.10
2018-09-21T22:33:55.414Z,7.23
2018-09-21T22:36:23.740Z,5.10
2018-09-21T22:38:52.242Z,5.37
2018-09-21T22:41:20.534Z,8.77
2018-09-21T22:43:49.374Z,8.33
2018-09-21T22:46:18.068Z,8.00
2018-09-21T22:48:47.056Z,5.93
2018-09-21T22:51:16.316Z,7.97
2018-09-21T22:53:44.729Z,4.67
2018-09-21T22:56:13.011Z,6.17
2018-09-21T22:58:41.367Z,4.90
2018-09-21T23:01:10.138Z,5.53
2018-09-21T23:03:38.406Z,4.73
2018-09-21T23:06:07.020Z,6.47
2018-09-21T23:08:35.335Z,5.30
2018-09-21T23:11:03.580Z,4.03
2018-09-21T23:13:31.814Z,4.80
2018-09-21T23:15:59.928Z,7.77
2018-09-21T23:18:28.101Z,6.33
2018-09-21T23:20:56.237Z,4.67
2018-09-21T23:23:24.552Z,6.93
2018-09-21T23:25:52.906Z,4.20
2018-09-21T23:28:21.277Z,5.83
2018-09-21T23:30:49.724Z,4.23
2018-09-21T23:33:17.966Z,3.83
2018-09-21T23:35:46.350Z,3.40
2018-09-21T23:38:14.565Z,4.17
2018-09-21T23:40:42.727Z,4.23
2018-09-21T23:43:10.866Z,5.47
2018-09-21T23:45:39.066Z,3.53
2018-09-21T23:48:07.180Z,5.57
2018-09-21T23:50:35.314Z,4.80
2018-09-21T23:53:03.489Z,2.97
2018-09-21T23:55:31.806Z,7.23
2018-09-21T23:58:00.032Z,4.70
